Terminal Aerodrome Forecast
Issued by NWS Quad Cities IA IL

Home | Current Version | Previous Version | Text Only | Print | Product List | Glossary On
Versions: 1 2 3 4 5 6 7 8 9 10 11 12 13 14 15 16 17 18 19
000
FTUS43 KDVN 170900 AAA
TAFDBQ
TAF AMD
KDBQ 170921Z 1709/1806 21014KT P6SM BKN250
     FM171000 27013G20KT P6SM OVC015
     FM171500 28010KT P6SM SCT020 BKN150
     FM180100 35005KT P6SM SCT250=

USA.gov is the U.S. government's official web portal to all federal, state and local government web resources and services.